x

Cape Elizabeth- 45nm Nw Of Aberdeen, Wa (46041) Wave Buoy

11:50 - Fri 22nd Aug 2014 All times are PDT. -7 hours from GMT.

  • Sig Wave height 3.0ft
  • Swell Direction
  • Peak Period 7s
  • Average Period 6s
  • Wind
    4mph
  • Sea Temp 54°f
  • Ar Temp 55°f
  • Sea Pressure 1018.9mb
  • Cape Elizabeth- 45nm Nw Of Aberdeen, Wa
  • Cape Elizabeth- 45nm Nw Of Aberdeen, Wa

More Historic Weather Station data

Upgrade to MSW Pro to gain access to the past 30 days of data for over 8000 Wavebouys and Weather Stations around the globe.

Join Pro

Comparision Forecast

View Surf forecast
   
Sex 08/22 11:50 3ft 7s 6s 4
mph
1018.9mb 54f 55f
10:50 3ft 8s 6s 7 9 mph 1018.8mb 54f 55f
9:50 2.5ft 14s 5s 7 9 mph 1018.4mb 55f 55f
8:50 3ft 8s 5s 9 11 mph 1018.2mb 56f 55f
7:50 3ft 8s 5s 13 16 mph 1017.9mb 56f 54f
6:50 3ft 8s 5s 13 18 mph 1017.4mb 57f 54f
5:50 3ft 8s 5s 13 18 mph 1017.1mb 58f 54f
4:50 3ft 14s 5s 16 18 mph 1017mb 58f 54f
3:50 2.5ft 14s 7s 13
mph
1016.7mb 59f 54f
2:50 2.5ft 8s 6s 11 13 mph 1016.7mb 59f 57f
1:50 2.5ft 14s 6s 7
mph
1016.3mb 60f 57f
12:50 2.5ft 8s 6s 4 7 mph 1016.2mb 60f 57f
Qui 08/21 11:50 2.5ft 15s 7s 4 7 mph 1016.1mb 60f 57f
10:50 2.5ft 8s 6s 2 4 mph 1016mb 60f 58f
9:50 3ft 15s 7s 4
mph
1015.8mb 60f 59f
8:50 2.5ft 14s 7s 4 7 mph 1015.6mb 60f 59f
7:50 2.5ft 15s 7s 2 4 mph 1015.5mb 59f 59f
6:50 2.5ft 15s 7s 4
mph
1015.6mb 59f 59f
5:50 2.5ft 15s 6s 7
mph
1016mb 59f 60f
4:50 2.5ft 8s 6s 9
mph
1016mb 59f 60f
3:50 2.5ft 7s 6s 9
mph
1016.5mb 59f 59f
2:50 2.5ft 8s 6s 7
mph
1017mb 59f 59f
1:50 3ft 15s 6s 9 11 mph 1017mb 58f 58f
12:50 3ft 8s 7s 9 11 mph 1017.2mb 58f 58f
11:50 3.5ft 6s 6s 7 9 mph 1017.3mb 57f 58f
10:50 3.5ft 9s 7s 7
mph
1017.2mb 57f 57f
9:50 3.5ft 7s 7s 7 9 mph 1017.3mb 56f 56f
8:50 3.5ft 9s 6s 7 9 mph 1017.1mb 56f 56f
7:50 3.5ft 8s 6s 4
mph
1017.2mb 56f 56f
6:50 3.5ft 8s 6s 2
mph
1017mb 56f 56f
5:50 4ft 9s 6s 2
mph
1016.8mb 57f 56f
4:50 3.5ft 8s 6s 2
mph
1016.7mb 57f 56f
3:50 4ft 9s 6s  -  2 mph 1017mb 57f 56f
2:50 3.5ft 7s 6s 2
mph
1017.1mb 56f 56f
1:50 4ft 7s 6s  -  mph 1017.1mb 57f 56f
12:50 4.5ft 7s 6s 2
mph
1016.9mb 57f 56f
Qua 08/20 11:50 4.5ft 9s 6s 4 7 mph 1016.7mb 56f 56f
10:50 4.5ft 7s 6s 7 9 mph 1016.7mb 56f 57f
9:50 4.5ft 8s 6s 7 11 mph 1016.4mb 58f 57f
8:50 5ft 7s 6s 9 11 mph 1016.3mb 58f 58f
7:50 5ft 8s 6s 9
mph
1016mb 58f 58f
6:50 4.5ft 7s 6s 7
mph
1015.9mb 58f 59f
5:50 4.5ft 8s 6s 7 11 mph 1016mb 58f 60f
4:50 5ft 8s 7s 9 11 mph 1016.2mb 59f 60f
3:50 5ft 8s 6s 7 9 mph 1016.3mb 59f 60f
2:50 5ft 8s 6s 7 9 mph 1016mb 59f 60f
1:50 6ft 8s 7s 7
mph
1015.8mb 59f 60f
12:50 6ft 7s 6s 7 9 mph 1015.6mb 58f 60f
11:50 6.5ft 8s 7s 4 7 mph 1015.2mb 58f 59f
10:50 6.5ft 8s 7s 4 7 mph 1014.8mb 57f 59f
9:50 7ft 8s 7s  -  2 mph 1014.4mb 57f 59f
8:50 6ft 8s 6s 4 9 mph 1014.2mb 57f 59f
7:50 6ft 8s 7s 7 9 mph 1013.8mb 57f 58f
6:50 6ft 9s 7s 9
mph
1013.3mb 57f 58f
5:50 7ft 10s 7s 9 11 mph 1012.9mb 57f 59f
4:50 6.5ft 9s 7s 7 9 mph 1012.6mb 58f 58f
3:50 6ft 8s 7s 4 7 mph 1012.6mb 58f 59f
2:50 6ft 11s 7s 7 9 mph 1012.3mb 58f 59f
1:50 5.5ft 8s 7s 7 9 mph 1012.4mb 58f 59f
12:50 5.5ft 11s 7s 4 7 mph 1012.2mb 58f 58f
Ter 08/19 11:50 6ft 10s 7s 4 7 mph 1012mb 58f 58f
10:50 5ft 11s 6s 9
mph
1011.9mb 58f 59f
9:50 5.5ft 11s 7s 9 11 mph 1012.1mb 58f 59f
8:50 5ft 11s 6s 11 13 mph 1011.9mb 57f 59f
7:50 5ft 11s 6s 11 13 mph 1011.8mb 58f 60f
6:50 5.5ft 11s 6s 11 13 mph 1012.1mb 58f 60f
5:50 6ft 11s 6s 13 16 mph 1012.1mb 58f 61f
4:50 6ft 11s 6s 11 13 mph 1012.3mb 58f 61f
3:50 6ft 9s 7s 9 11 mph 1012.4mb 59f 61f
2:50 6ft 11s 7s 9 11 mph 1012.6mb 59f 60f
1:50 6ft 8s 7s 7 9 mph 1012.7mb 58f 59f
12:50 6ft 7s 7s 7 9 mph 1012.6mb 57f 59f
11:50 6ft 7s 7s 7
mph
1012.5mb 57f 59f
10:50 6.5ft 7s 7s 4 7 mph 1012.4mb 56f 58f
9:50 7ft 8s 7s 4 7 mph 1012.3mb 56f 58f
8:50 7ft 8s 7s 7 9 mph 1012.1mb 56f 58f
7:50 7ft 8s 7s 11 13 mph 1011.9mb 56f 58f
6:50 7ft 8s 7s 13 16 mph 1011.6mb 56f 58f
5:50 6ft 7s 6s 16 20 mph 1011.2mb 56f 59f
4:50 5.5ft 8s 6s 9 11 mph 1010.9mb 56f 58f
3:50 5.5ft 7s 6s 16 18 mph 1010.9mb 56f 59f
2:50 5.5ft 10s 6s 13 16 mph 1010.8mb 57f 59f
1:50 5.5ft 8s 7s 11 13 mph 1010.9mb 57f 59f
12:50 5ft 7s 6s 9 11 mph 1011.2mb 56f 59f
Seg 08/18 11:50 5.5ft 8s 6s 13
mph
1011.5mb 56f 59f
10:50 4.5ft 9s 6s 9 11 mph 1011.2mb 56f 58f
9:50 5ft 7s 6s 16 18 mph 1011.9mb 56f 58f
8:50 5ft 7s 6s 16 18 mph 1012.2mb 56f 58f